createdAt,value
2019-05-11T00:00:08.859Z,12.20
2019-05-11T00:05:12.739Z,12.20
2019-05-11T00:10:16.640Z,12.20
2019-05-11T00:15:20.538Z,12.20
2019-05-11T00:20:24.431Z,12.10
2019-05-11T00:25:28.311Z,12.10
2019-05-11T00:30:32.227Z,12.00
2019-05-11T00:35:36.110Z,12.00
2019-05-11T00:40:39.998Z,12.00
2019-05-11T00:45:43.903Z,12.00
2019-05-11T00:50:47.793Z,11.90
2019-05-11T00:55:51.691Z,11.80
2019-05-11T01:00:55.574Z,11.70
2019-05-11T01:05:59.478Z,11.70
2019-05-11T01:11:03.346Z,11.70
2019-05-11T01:16:07.214Z,11.80
2019-05-11T01:21:11.111Z,11.80
2019-05-11T01:26:14.988Z,11.80
2019-05-11T01:31:18.875Z,11.70
2019-05-11T01:36:22.761Z,11.50
2019-05-11T01:41:26.653Z,11.50
2019-05-11T01:46:30.561Z,11.50
2019-05-11T01:51:34.579Z,11.50
2019-05-11T01:56:38.519Z,11.50
2019-05-11T02:01:42.433Z,11.40
2019-05-11T02:06:46.375Z,11.40
2019-05-11T02:11:50.301Z,11.40
2019-05-11T02:16:54.279Z,11.20
2019-05-11T02:21:58.208Z,11.10
2019-05-11T02:27:02.142Z,11.10
2019-05-11T02:32:06.094Z,11.00
2019-05-11T02:37:10.042Z,11.00
2019-05-11T02:42:13.953Z,11.00
2019-05-11T02:47:17.893Z,10.90
2019-05-11T02:52:22.424Z,10.80
2019-05-11T02:57:26.357Z,10.90
2019-05-11T03:02:30.300Z,10.80
2019-05-11T03:07:34.217Z,10.80
2019-05-11T03:12:38.147Z,10.70
2019-05-11T03:17:42.082Z,10.70
2019-05-11T03:22:46.020Z,10.70
2019-05-11T03:27:50.056Z,10.80
2019-05-11T03:32:53.985Z,10.90
2019-05-11T03:37:57.904Z,11.00
2019-05-11T03:43:01.838Z,11.00
2019-05-11T03:48:05.799Z,11.00
2019-05-11T03:53:09.730Z,10.90
2019-05-11T03:58:13.659Z,10.90
2019-05-11T04:03:17.587Z,10.90
2019-05-11T04:08:21.467Z,10.90
2019-05-11T04:13:25.362Z,10.90
2019-05-11T04:18:29.242Z,10.90
2019-05-11T04:23:33.164Z,10.90
2019-05-11T04:28:37.044Z,10.80
2019-05-11T04:33:40.932Z,10.80
2019-05-11T04:38:44.815Z,10.90
2019-05-11T04:43:48.702Z,10.90
2019-05-11T04:48:52.611Z,11.00
2019-05-11T04:53:56.487Z,11.10
2019-05-11T04:59:00.387Z,11.10
2019-05-11T05:04:14.067Z,11.20
2019-05-11T05:09:10.012Z,11.30
2019-05-11T05:14:13.956Z,11.40
2019-05-11T05:19:17.856Z,11.40
2019-05-11T05:24:21.739Z,11.50
2019-05-11T05:29:25.627Z,11.60
2019-05-11T05:34:29.508Z,11.70
2019-05-11T05:39:33.413Z,11.80
2019-05-11T05:44:37.325Z,11.90
2019-05-11T05:49:41.200Z,12.00
2019-05-11T05:54:45.101Z,12.10
2019-05-11T05:59:49.011Z,12.20
2019-05-11T06:04:52.933Z,12.30
2019-05-11T06:09:56.824Z,12.40
2019-05-11T06:15:00.755Z,12.50
2019-05-11T06:20:06.023Z,12.60
2019-05-11T06:25:10.512Z,12.70
2019-05-11T06:30:15.188Z,12.90
2019-05-11T06:35:22.565Z,13.00
2019-05-11T06:40:28.491Z,13.10
2019-05-11T06:45:31.636Z,13.20
2019-05-11T06:50:35.510Z,13.30
2019-05-11T06:55:39.456Z,13.50
2019-05-11T07:00:43.348Z,13.60
2019-05-11T07:05:47.232Z,13.70
2019-05-11T07:10:51.386Z,13.90
2019-05-11T07:15:55.328Z,14.00
2019-05-11T07:20:59.262Z,14.10
2019-05-11T07:26:03.207Z,14.20
2019-05-11T07:31:07.220Z,14.30
2019-05-11T07:36:11.603Z,14.50
2019-05-11T07:41:17.536Z,14.70
2019-05-11T07:46:21.067Z,14.80
2019-05-11T07:51:24.966Z,15.10
2019-05-11T07:56:28.854Z,15.20
2019-05-11T08:01:32.744Z,15.40
2019-05-11T08:06:38.881Z,15.70
2019-05-11T08:11:42.218Z,16.00
2019-05-11T08:16:48.039Z,16.50
2019-05-11T08:21:51.677Z,17.00
2019-05-11T08:26:58.184Z,17.20
2019-05-11T08:32:02.372Z,18.10
2019-05-11T08:37:08.684Z,19.40
2019-05-11T08:42:18.034Z,20.50
2019-05-11T08:47:22.295Z,20.70
2019-05-11T08:52:28.038Z,21.40
2019-05-11T08:57:31.723Z,21.90
2019-05-11T09:02:35.601Z,22.80
2019-05-11T09:07:39.520Z,23.10
2019-05-11T09:12:43.405Z,23.80
2019-05-11T09:17:48.804Z,24.00
2019-05-11T09:22:52.910Z,24.20
2019-05-11T09:27:58.690Z,24.60
2019-05-11T09:33:02.323Z,24.90
2019-05-11T09:38:08.046Z,24.90
2019-05-11T09:43:13.311Z,24.60
2019-05-11T09:48:18.001Z,24.00
2019-05-11T09:53:22.112Z,23.90
2019-05-11T09:58:27.916Z,24.00
2019-05-11T10:03:31.499Z,24.00
2019-05-11T10:08:37.906Z,24.20
2019-05-11T10:13:40.983Z,23.60
2019-05-11T10:18:45.071Z,23.00
2019-05-11T10:23:50.085Z,23.00
2019-05-11T10:28:54.027Z,23.20
2019-05-11T10:34:00.356Z,23.50
2019-05-11T10:39:07.895Z,23.60
2019-05-11T10:44:11.488Z,23.00
2019-05-11T10:49:15.356Z,23.00
2019-05-11T10:54:19.323Z,23.30
2019-05-11T10:59:23.217Z,23.50
2019-05-11T11:04:28.893Z,23.60
2019-05-11T11:09:32.943Z,24.00
2019-05-11T11:14:37.740Z,24.30
2019-05-11T11:19:41.697Z,24.30
2019-05-11T11:24:48.017Z,24.00
2019-05-11T11:29:51.096Z,24.00
2019-05-11T11:34:54.983Z,23.60
2019-05-11T11:39:58.875Z,23.30
2019-05-11T11:45:02.884Z,23.20
2019-05-11T11:50:09.122Z,23.30
2019-05-11T11:55:13.483Z,23.60
2019-05-11T12:00:18.352Z,23.40
2019-05-11T12:05:22.370Z,23.20
2019-05-11T12:10:28.488Z,22.70
2019-05-11T12:15:31.803Z,22.30
2019-05-11T12:20:35.701Z,21.90
2019-05-11T12:25:40.590Z,21.60
2019-05-11T12:30:44.681Z,21.40
2019-05-11T12:35:48.601Z,21.10
2019-05-11T12:40:52.519Z,20.80
2019-05-11T12:45:58.574Z,20.70
2019-05-11T12:51:02.032Z,20.50
2019-05-11T12:56:08.210Z,20.30
2019-05-11T13:01:11.465Z,20.00
2019-05-11T13:06:15.347Z,19.70
2019-05-11T13:11:19.239Z,19.80
2019-05-11T13:16:28.594Z,19.80
2019-05-11T13:21:31.816Z,19.70
2019-05-11T13:26:37.478Z,19.50
2019-05-11T13:31:41.322Z,19.40
2019-05-11T13:36:45.257Z,19.30
2019-05-11T13:41:49.188Z,19.10
2019-05-11T13:46:53.219Z,18.90
2019-05-11T13:51:58.491Z,18.80
2019-05-11T13:57:02.618Z,18.70
2019-05-11T14:02:10.629Z,18.60
2019-05-11T14:07:12.118Z,18.50
2019-05-11T14:12:18.126Z,18.40
2019-05-11T14:17:21.637Z,18.40
2019-05-11T14:22:27.606Z,18.20
2019-05-11T14:27:31.261Z,18.20
2019-05-11T14:32:38.630Z,18.10
2019-05-11T14:37:40.934Z,17.90
2019-05-11T14:42:44.861Z,17.90
2019-05-11T14:47:48.812Z,17.80
2019-05-11T14:52:53.134Z,17.70
2019-05-11T14:57:57.666Z,17.70
2019-05-11T15:03:01.817Z,17.70
2019-05-11T15:08:05.760Z,17.70
2019-05-11T15:13:09.701Z,17.60
2019-05-11T15:18:17.585Z,17.60
2019-05-11T15:23:20.757Z,17.50
2019-05-11T15:28:24.641Z,17.50
2019-05-11T15:33:28.672Z,17.50
2019-05-11T15:38:32.710Z,17.40
2019-05-11T15:43:38.666Z,17.40
2019-05-11T15:48:55.662Z,17.30
2019-05-11T15:53:50.255Z,17.30
2019-05-11T15:58:54.810Z,17.30
2019-05-11T16:03:58.704Z,17.30
2019-05-11T16:09:08.007Z,17.30
2019-05-11T16:14:11.058Z,17.30
2019-05-11T16:19:15.424Z,17.20
2019-05-11T16:24:19.448Z,17.10
2019-05-11T16:29:24.221Z,17.10
2019-05-11T16:34:28.120Z,17.10
2019-05-11T16:39:32.014Z,17.00
2019-05-11T16:44:37.878Z,17.00
2019-05-11T16:49:41.572Z,17.00
2019-05-11T16:54:47.683Z,17.00
2019-05-11T16:59:51.310Z,16.90
2019-05-11T17:04:55.650Z,16.90
2019-05-11T17:10:01.363Z,16.90
2019-05-11T17:15:08.781Z,16.90
2019-05-11T17:20:13.177Z,16.80
2019-05-11T17:25:19.317Z,16.80
2019-05-11T17:30:22.858Z,16.90
2019-05-11T17:35:26.989Z,16.80
2019-05-11T17:40:31.020Z,16.80
2019-05-11T17:45:35.206Z,16.70
2019-05-11T17:50:39.241Z,16.60
2019-05-11T17:55:43.157Z,16.70
2019-05-11T18:00:48.042Z,16.70
2019-05-11T18:05:52.350Z,16.60
2019-05-11T18:10:58.666Z,16.50
2019-05-11T18:16:02.403Z,16.50
2019-05-11T18:21:08.530Z,16.40
2019-05-11T18:26:12.068Z,16.40
2019-05-11T18:31:18.081Z,16.40
2019-05-11T18:36:21.865Z,16.30
2019-05-11T18:41:28.267Z,16.40
2019-05-11T18:46:31.967Z,16.40
2019-05-11T18:51:37.787Z,16.40
2019-05-11T18:56:41.502Z,16.30
2019-05-11T19:01:45.456Z,16.40
2019-05-11T19:06:49.512Z,16.40
2019-05-11T19:11:53.512Z,16.30
2019-05-11T19:16:57.457Z,16.30
2019-05-11T19:22:01.389Z,16.30
2019-05-11T19:27:07.964Z,16.20
2019-05-11T19:32:11.275Z,16.20
2019-05-11T19:37:18.820Z,16.20
2019-05-11T19:42:23.036Z,16.20
2019-05-11T19:47:28.215Z,16.20
2019-05-11T19:52:32.411Z,16.10
2019-05-11T19:57:39.789Z,16.10
2019-05-11T20:02:44.867Z,16.10
2019-05-11T20:07:49.144Z,16.00
2019-05-11T20:12:53.122Z,16.00
2019-05-11T20:17:58.615Z,15.90
2019-05-11T20:23:03.068Z,15.80
2019-05-11T20:28:07.037Z,15.80
2019-05-11T20:33:11.047Z,15.80
2019-05-11T20:38:18.576Z,15.70
2019-05-11T20:43:21.771Z,15.70
2019-05-11T20:48:27.767Z,15.60
2019-05-11T20:53:31.340Z,15.60
2019-05-11T20:58:53.297Z,15.60
2019-05-11T21:03:58.415Z,15.60
2019-05-11T21:09:02.688Z,15.60
2019-05-11T21:14:08.071Z,15.50
2019-05-11T21:19:12.116Z,15.50
2019-05-11T21:24:16.005Z,15.50
2019-05-11T21:29:19.921Z,15.50
2019-05-11T21:34:23.801Z,15.50
2019-05-11T21:39:28.758Z,15.50
2019-05-11T21:44:32.888Z,15.50
2019-05-11T21:49:37.829Z,15.50
2019-05-11T21:54:41.853Z,15.40
2019-05-11T21:59:45.739Z,15.40
2019-05-11T22:04:49.692Z,15.40
2019-05-11T22:09:53.584Z,15.40
2019-05-11T22:14:57.965Z,15.40
2019-05-11T22:20:02.030Z,15.40
2019-05-11T22:25:08.002Z,15.40
2019-05-11T22:30:12.648Z,15.40
2019-05-11T22:35:18.366Z,15.40
2019-05-11T22:40:22.101Z,15.40
2019-05-11T22:45:27.778Z,15.40
2019-05-11T22:50:31.585Z,15.40
2019-05-11T22:55:35.478Z,15.40
2019-05-11T23:00:44.186Z,15.30
2019-05-11T23:05:48.100Z,15.30
2019-05-11T23:10:51.996Z,15.20
2019-05-11T23:15:58.267Z,15.20
2019-05-11T23:21:01.434Z,15.20
2019-05-11T23:26:05.514Z,15.20
2019-05-11T23:31:09.413Z,15.10
2019-05-11T23:36:13.326Z,15.10
2019-05-11T23:41:24.553Z,15.00
2019-05-11T23:46:23.021Z,15.00
2019-05-11T23:51:28.264Z,15.00
2019-05-11T23:56:32.437Z,15.00
